sensor_id;sensor_type;location;lat;lon;timestamp;pressure;altitude;pressure_sealevel;temperature;humidity
41246;BME280;53880;47.526;18.986;2024-03-02T00:00:03;99138.19;;;18.02;53.90
41246;BME280;53880;47.526;18.986;2024-03-02T00:02:50;99140.84;;;18.02;53.99
41246;BME280;53880;47.526;18.986;2024-03-02T00:05:06;99145.34;;;18.02;53.99
41246;BME280;53880;47.526;18.986;2024-03-02T00:07:21;99149.81;;;18.01;54.14
41246;BME280;53880;47.526;18.986;2024-03-02T00:09:37;99146.19;;;18.02;54.11
41246;BME280;53880;47.526;18.986;2024-03-02T00:11:56;99142.66;;;18.02;54.05
41246;BME280;53880;47.526;18.986;2024-03-02T00:14:12;99135.66;;;18.01;54.02
41246;BME280;53880;47.526;18.986;2024-03-02T00:16:31;99136.50;;;18.01;53.99
41246;BME280;53880;47.526;18.986;2024-03-02T00:18:49;99134.84;;;18.00;54.13
41246;BME280;53880;47.526;18.986;2024-03-02T00:21:06;99129.66;;;17.99;53.98
41246;BME280;53880;47.526;18.986;2024-03-02T00:23:30;99133.00;;;18.01;54.17
41246;BME280;53880;47.526;18.986;2024-03-02T00:25:50;99120.69;;;18.00;53.89
41246;BME280;53880;47.526;18.986;2024-03-02T00:33:14;99117.16;;;17.99;54.09
41246;BME280;53880;47.526;18.986;2024-03-02T00:35:34;99118.00;;;18.00;54.02
41246;BME280;53880;47.526;18.986;2024-03-02T00:37:49;99114.69;;;17.98;54.08
41246;BME280;53880;47.526;18.986;2024-03-02T00:40:10;99115.53;;;17.98;53.91
41246;BME280;53880;47.526;18.986;2024-03-02T00:42:33;99120.00;;;17.98;54.04
41246;BME280;53880;47.526;18.986;2024-03-02T00:44:48;99127.66;;;17.93;53.94
41246;BME280;53880;47.526;18.986;2024-03-02T00:47:03;99136.31;;;17.95;54.01
41246;BME280;53880;47.526;18.986;2024-03-02T00:49:22;99130.00;;;17.96;54.04
41246;BME280;53880;47.526;18.986;2024-03-02T00:51:50;99137.81;;;17.97;54.04
41246;BME280;53880;47.526;18.986;2024-03-02T00:54:08;99129.00;;;17.97;54.12
41246;BME280;53880;47.526;18.986;2024-03-02T00:56:30;99130.84;;;17.96;54.09
41246;BME280;53880;47.526;18.986;2024-03-02T00:58:53;99131.31;;;17.92;54.15
41246;BME280;53880;47.526;18.986;2024-03-02T01:01:11;99136.47;;;17.93;53.96
41246;BME280;53880;47.526;18.986;2024-03-02T01:03:28;99141.97;;;17.92;54.02
41246;BME280;53880;47.526;18.986;2024-03-02T01:05:48;99134.00;;;17.92;54.22
41246;BME280;53880;47.526;18.986;2024-03-02T01:08:06;99134.81;;;17.92;54.24
41246;BME280;53880;47.526;18.986;2024-03-02T01:10:26;99132.31;;;17.91;54.00
41246;BME280;53880;47.526;18.986;2024-03-02T01:12:45;99134.00;;;17.92;53.92
41246;BME280;53880;47.526;18.986;2024-03-02T01:15:03;99125.47;;;17.88;53.99
41246;BME280;53880;47.526;18.986;2024-03-02T01:17:20;99124.63;;;17.88;54.07
41246;BME280;53880;47.526;18.986;2024-03-02T01:19:36;99125.31;;;17.90;54.14
41246;BME280;53880;47.526;18.986;2024-03-02T01:21:56;99120.00;;;17.90;54.10
41246;BME280;53880;47.526;18.986;2024-03-02T01:24:14;99117.16;;;17.91;53.96
41246;BME280;53880;47.526;18.986;2024-03-02T01:26:29;99113.81;;;17.89;54.10
41246;BME280;53880;47.526;18.986;2024-03-02T01:28:46;99118.31;;;17.89;54.08
41246;BME280;53880;47.526;18.986;2024-03-02T01:31:06;99101.34;;;17.90;54.06
41246;BME280;53880;47.526;18.986;2024-03-02T01:33:26;99101.16;;;17.91;54.08
41246;BME280;53880;47.526;18.986;2024-03-02T01:35:44;99096.16;;;17.88;53.95
41246;BME280;53880;47.526;18.986;2024-03-02T01:38:04;99088.03;;;17.90;53.93
41246;BME280;53880;47.526;18.986;2024-03-02T01:40:23;99085.34;;;17.90;54.00
41246;BME280;53880;47.526;18.986;2024-03-02T01:42:44;99082.53;;;17.91;54.06
41246;BME280;53880;47.526;18.986;2024-03-02T01:45:02;99077.38;;;17.90;54.06
41246;BME280;53880;47.526;18.986;2024-03-02T01:47:22;99073.69;;;17.91;53.77
41246;BME280;53880;47.526;18.986;2024-03-02T01:49:37;99075.00;;;17.87;53.85
41246;BME280;53880;47.526;18.986;2024-03-02T01:51:56;99071.34;;;17.88;54.08
41246;BME280;53880;47.526;18.986;2024-03-02T01:54:11;99075.69;;;17.89;54.04
41246;BME280;53880;47.526;18.986;2024-03-02T01:56:31;99075.84;;;17.87;54.05
41246;BME280;53880;47.526;18.986;2024-03-02T01:58:46;99078.34;;;17.89;54.01
41246;BME280;53880;47.526;18.986;2024-03-02T02:01:04;99081.84;;;17.89;53.76
41246;BME280;53880;47.526;18.986;2024-03-02T02:03:21;99080.16;;;17.88;53.82
41246;BME280;53880;47.526;18.986;2024-03-02T02:05:36;99083.69;;;17.89;53.89
41246;BME280;53880;47.526;18.986;2024-03-02T02:07:59;99082.84;;;17.88;54.01
41246;BME280;53880;47.526;18.986;2024-03-02T02:10:17;99090.81;;;17.88;54.01
41246;BME280;53880;47.526;18.986;2024-03-02T02:12:34;99089.97;;;17.88;53.99
41246;BME280;53880;47.526;18.986;2024-03-02T02:14:54;99095.50;;;17.86;54.00
41246;BME280;53880;47.526;18.986;2024-03-02T02:17:11;99101.66;;;17.87;54.01
41246;BME280;53880;47.526;18.986;2024-03-02T02:19:31;99107.81;;;17.87;53.99
41246;BME280;53880;47.526;18.986;2024-03-02T02:21:51;99109.66;;;17.87;53.99
41246;BME280;53880;47.526;18.986;2024-03-02T02:24:08;99112.31;;;17.87;53.84
41246;BME280;53880;47.526;18.986;2024-03-02T02:26:23;99114.13;;;17.86;53.96
41246;BME280;53880;47.526;18.986;2024-03-02T02:28:43;99116.81;;;17.86;53.86
41246;BME280;53880;47.526;18.986;2024-03-02T02:31:04;99110.81;;;17.84;54.02
41246;BME280;53880;47.526;18.986;2024-03-02T02:33:21;99111.66;;;17.85;53.88
41246;BME280;53880;47.526;18.986;2024-03-02T02:35:38;99116.31;;;17.83;53.88
41246;BME280;53880;47.526;18.986;2024-03-02T02:37:57;99117.47;;;17.80;54.16
41246;BME280;53880;47.526;18.986;2024-03-02T02:40:13;99115.63;;;17.81;53.93
41246;BME280;53880;47.526;18.986;2024-03-02T02:42:31;99117.47;;;17.80;53.89
41246;BME280;53880;47.526;18.986;2024-03-02T02:44:56;99111.97;;;17.82;54.08
41246;BME280;53880;47.526;18.986;2024-03-02T02:47:16;99116.78;;;17.78;53.94
41246;BME280;53880;47.526;18.986;2024-03-02T02:49:35;99103.28;;;17.80;53.88
41246;BME280;53880;47.526;18.986;2024-03-02T02:51:54;99107.47;;;17.82;54.06
41246;BME280;53880;47.526;18.986;2024-03-02T02:54:12;99104.97;;;17.81;54.07
41246;BME280;53880;47.526;18.986;2024-03-02T02:56:31;99104.97;;;17.81;53.81
41246;BME280;53880;47.526;18.986;2024-03-02T02:58:49;99099.47;;;17.82;54.00
41246;BME280;53880;47.526;18.986;2024-03-02T03:01:11;99097.84;;;17.81;53.93
41246;BME280;53880;47.526;18.986;2024-03-02T03:03:28;99100.50;;;17.81;53.81
41246;BME280;53880;47.526;18.986;2024-03-02T03:05:49;99103.28;;;17.80;53.95
41246;BME280;53880;47.526;18.986;2024-03-02T03:08:08;99110.31;;;17.81;54.02
41246;BME280;53880;47.526;18.986;2024-03-02T03:10:30;99104.97;;;17.81;53.79
41246;BME280;53880;47.526;18.986;2024-03-02T03:12:48;99109.28;;;17.82;53.73
41246;BME280;53880;47.526;18.986;2024-03-02T03:15:06;99115.78;;;17.79;53.88
41246;BME280;53880;47.526;18.986;2024-03-02T03:17:27;99117.47;;;17.80;53.93
41246;BME280;53880;47.526;18.986;2024-03-02T03:19:42;99116.78;;;17.78;53.76
41246;BME280;53880;47.526;18.986;2024-03-02T03:22:00;99125.47;;;17.80;53.77
41246;BME280;53880;47.526;18.986;2024-03-02T03:24:18;99120.97;;;17.81;53.70
41246;BME280;53880;47.526;18.986;2024-03-02T03:26:35;99108.63;;;17.80;53.73
41246;BME280;53880;47.526;18.986;2024-03-02T03:28:55;99111.47;;;17.78;53.95
41246;BME280;53880;47.526;18.986;2024-03-02T03:31:13;99111.47;;;17.78;53.77
41246;BME280;53880;47.526;18.986;2024-03-02T03:33:30;99113.97;;;17.80;53.91
41246;BME280;53880;47.526;18.986;2024-03-02T03:35:50;99111.28;;;17.80;53.69
41246;BME280;53880;47.526;18.986;2024-03-02T03:38:11;99111.63;;;17.77;53.94
41246;BME280;53880;47.526;18.986;2024-03-02T03:40:29;99114.97;;;17.79;53.86
41246;BME280;53880;47.526;18.986;2024-03-02T03:42:47;99117.78;;;17.77;53.76
41246;BME280;53880;47.526;18.986;2024-03-02T03:45:07;99111.63;;;17.77;53.66
41246;BME280;53880;47.526;18.986;2024-03-02T03:47:24;99120.44;;;17.77;53.69
41246;BME280;53880;47.526;18.986;2024-03-02T03:49:40;99118.63;;;17.78;53.88
41246;BME280;53880;47.526;18.986;2024-03-02T03:51:55;99128.78;;;17.74;53.78
41246;BME280;53880;47.526;18.986;2024-03-02T03:54:13;99118.25;;;17.73;54.04
41246;BME280;53880;47.526;18.986;2024-03-02T03:56:32;99122.59;;;17.74;53.98
41246;BME280;53880;47.526;18.986;2024-03-02T03:58:51;99129.94;;;17.72;53.83
41246;BME280;53880;47.526;18.986;2024-03-02T04:01:07;99125.44;;;17.72;53.78
41246;BME280;53880;47.526;18.986;2024-03-02T04:03:22;99129.94;;;17.72;53.79
41246;BME280;53880;47.526;18.986;2024-03-02T04:05:40;99132.41;;;17.73;53.75
41246;BME280;53880;47.526;18.986;2024-03-02T04:08:01;99130.91;;;17.71;53.82
41246;BME280;53880;47.526;18.986;2024-03-02T04:10:16;99134.41;;;17.71;53.83
41246;BME280;53880;47.526;18.986;2024-03-02T04:12:38;99136.91;;;17.73;53.72
41246;BME280;53880;47.526;18.986;2024-03-02T04:14:53;99136.22;;;17.71;53.98
41246;BME280;53880;47.526;18.986;2024-03-02T04:17:10;99138.91;;;17.71;53.78
41246;BME280;53880;47.526;18.986;2024-03-02T04:19:25;99146.09;;;17.70;53.91
41246;BME280;53880;47.526;18.986;2024-03-02T04:21:45;99146.75;;;17.72;53.67
41246;BME280;53880;47.526;18.986;2024-03-02T04:24:03;99148.56;;;17.72;53.92
41246;BME280;53880;47.526;18.986;2024-03-02T04:26:23;99145.06;;;17.71;53.71
41246;BME280;53880;47.526;18.986;2024-03-02T04:28:42;99148.56;;;17.72;53.93
41246;BME280;53880;47.526;18.986;2024-03-02T04:30:59;99147.06;;;17.69;53.92
41246;BME280;53880;47.526;18.986;2024-03-02T04:33:19;99146.09;;;17.70;53.71
41246;BME280;53880;47.526;18.986;2024-03-02T04:35:37;99144.22;;;17.71;53.93
41246;BME280;53880;47.526;18.986;2024-03-02T04:37:57;99152.22;;;17.71;53.74
41246;BME280;53880;47.526;18.986;2024-03-02T04:40:20;99144.22;;;17.71;53.68
41246;BME280;53880;47.526;18.986;2024-03-02T04:42:37;99145.06;;;17.71;53.88
41246;BME280;53880;47.526;18.986;2024-03-02T04:44:59;99152.22;;;17.71;53.82
41246;BME280;53880;47.526;18.986;2024-03-02T04:47:16;99151.25;;;17.72;53.68
41246;BME280;53880;47.526;18.986;2024-03-02T04:49:36;99147.91;;;17.70;53.61
41246;BME280;53880;47.526;18.986;2024-03-02T04:51:54;99154.06;;;17.70;53.68
41246;BME280;53880;47.526;18.986;2024-03-02T04:54:14;99148.75;;;17.70;53.62
41246;BME280;53880;47.526;18.986;2024-03-02T04:56:29;99153.06;;;17.71;53.68
41246;BME280;53880;47.526;18.986;2024-03-02T04:58:49;99160.22;;;17.71;53.80
41246;BME280;53880;47.526;18.986;2024-03-02T05:01:06;99158.56;;;17.70;53.66
41246;BME280;53880;47.526;18.986;2024-03-02T05:03:21;99158.56;;;17.70;53.61
41246;BME280;53880;47.526;18.986;2024-03-02T05:05:39;99154.22;;;17.69;53.82
41246;BME280;53880;47.526;18.986;2024-03-02T05:07:59;99158.56;;;17.70;53.58
41246;BME280;53880;47.526;18.986;2024-03-02T05:10:14;99155.06;;;17.69;53.62
41246;BME280;53880;47.526;18.986;2024-03-02T05:12:32;99151.88;;;17.66;53.87
41246;BME280;53880;47.526;18.986;2024-03-02T05:15:14;99151.88;;;17.66;53.69
41246;BME280;53880;47.526;18.986;2024-03-02T05:17:34;99160.56;;;17.68;53.71
41246;BME280;53880;47.526;18.986;2024-03-02T05:19:52;99155.38;;;17.66;53.69
41246;BME280;53880;47.526;18.986;2024-03-02T05:22:09;99155.38;;;17.66;53.87
41246;BME280;53880;47.526;18.986;2024-03-02T05:24:27;99153.53;;;17.67;53.65
41246;BME280;53880;47.526;18.986;2024-03-02T05:26:45;99154.84;;;17.63;53.97
41246;BME280;53880;47.526;18.986;2024-03-02T05:29:02;99160.00;;;17.64;53.91
41246;BME280;53880;47.526;18.986;2024-03-02T05:31:22;99166.34;;;17.63;53.71
41246;BME280;53880;47.526;18.986;2024-03-02T05:33:38;99163.69;;;17.63;53.72
41246;BME280;53880;47.526;18.986;2024-03-02T05:35:58;99168.00;;;17.64;53.89
41246;BME280;53880;47.526;18.986;2024-03-02T05:38:18;99165.50;;;17.63;53.68
41246;BME280;53880;47.526;18.986;2024-03-02T05:40:41;99158.66;;;17.60;53.81
41246;BME280;53880;47.526;18.986;2024-03-02T05:42:59;99158.38;;;17.63;53.83
41246;BME280;53880;47.526;18.986;2024-03-02T05:45:14;99159.34;;;17.62;53.70
41246;BME280;53880;47.526;18.986;2024-03-02T05:47:33;99157.53;;;17.63;53.91
41246;BME280;53880;47.526;18.986;2024-03-02T05:49:49;99156.84;;;17.61;53.82
41246;BME280;53880;47.526;18.986;2024-03-02T05:52:06;99165.84;;;17.60;53.77
41246;BME280;53880;47.526;18.986;2024-03-02T05:54:24;99165.69;;;17.61;53.72
41246;BME280;53880;47.526;18.986;2024-03-02T05:56:41;99163.03;;;17.61;53.84
41246;BME280;53880;47.526;18.986;2024-03-02T05:58:56;99164.84;;;17.61;53.86
41246;BME280;53880;47.526;18.986;2024-03-02T06:01:32;99171.00;;;17.61;53.83
41246;BME280;53880;47.526;18.986;2024-03-02T06:03:49;99177.19;;;17.62;53.67
41246;BME280;53880;47.526;18.986;2024-03-02T06:06:09;99182.50;;;17.62;53.67
41246;BME280;53880;47.526;18.986;2024-03-02T06:08:27;99187.84;;;17.62;53.84
41246;BME280;53880;47.526;18.986;2024-03-02T06:10:42;99194.97;;;17.61;53.58
41246;BME280;53880;47.526;18.986;2024-03-02T06:13:02;99193.97;;;17.62;53.77
41246;BME280;53880;47.526;18.986;2024-03-02T06:15:19;99198.50;;;17.62;53.65
41246;BME280;53880;47.526;18.986;2024-03-02T06:17:35;99193.16;;;17.62;53.60
41246;BME280;53880;47.526;18.986;2024-03-02T06:19:52;99195.81;;;17.62;53.78
41246;BME280;53880;47.526;18.986;2024-03-02T06:22:10;99198.50;;;17.62;53.75
41246;BME280;53880;47.526;18.986;2024-03-02T06:24:25;99196.81;;;17.61;53.60
41246;BME280;53880;47.526;18.986;2024-03-02T06:26:43;99196.81;;;17.61;53.77
41246;BME280;53880;47.526;18.986;2024-03-02T06:29:00;99193.28;;;17.60;53.56
41246;BME280;53880;47.526;18.986;2024-03-02T06:31:19;99195.97;;;17.60;53.81
41246;BME280;53880;47.526;18.986;2024-03-02T06:33:39;99198.63;;;17.60;53.63
41246;BME280;53880;47.526;18.986;2024-03-02T06:35:59;99195.28;;;17.58;53.58
41246;BME280;53880;47.526;18.986;2024-03-02T06:38:19;99202.28;;;17.59;53.62
41246;BME280;53880;47.526;18.986;2024-03-02T06:40:34;99204.13;;;17.59;53.63
41246;BME280;53880;47.526;18.986;2024-03-02T06:42:54;99209.63;;;17.57;53.65
41246;BME280;53880;47.526;18.986;2024-03-02T06:45:09;99201.63;;;17.57;53.65
41246;BME280;53880;47.526;18.986;2024-03-02T06:47:24;99202.44;;;17.58;53.66
41246;BME280;53880;47.526;18.986;2024-03-02T06:49:42;99200.78;;;17.57;53.65
41246;BME280;53880;47.526;18.986;2024-03-02T06:51:59;99199.94;;;17.56;53.65
41246;BME280;53880;47.526;18.986;2024-03-02T06:54:14;99200.78;;;17.57;53.68
41246;BME280;53880;47.526;18.986;2024-03-02T06:56:29;99207.94;;;17.56;53.81
41246;BME280;53880;47.526;18.986;2024-03-02T06:58:50;99203.63;;;17.55;53.63
41246;BME280;53880;47.526;18.986;2024-03-02T07:01:07;99207.25;;;17.54;53.82
41246;BME280;53880;47.526;18.986;2024-03-02T07:03:27;99207.09;;;17.56;53.64
41246;BME280;53880;47.526;18.986;2024-03-02T07:05:44;99204.41;;;17.56;53.67
41246;BME280;53880;47.526;18.986;2024-03-02T07:08:00;99205.44;;;17.55;53.61
41246;BME280;53880;47.526;18.986;2024-03-02T07:10:20;99203.75;;;17.53;53.56
41246;BME280;53880;47.526;18.986;2024-03-02T07:12:38;99206.41;;;17.53;53.61
41246;BME280;53880;47.526;18.986;2024-03-02T07:14:55;99212.59;;;17.54;53.64
41246;BME280;53880;47.526;18.986;2024-03-02T07:17:13;99206.41;;;17.53;53.80
41246;BME280;53880;47.526;18.986;2024-03-02T07:19:32;99209.06;;;17.53;53.62
41246;BME280;53880;47.526;18.986;2024-03-02T07:21:50;99213.59;;;17.53;53.79
41246;BME280;53880;47.526;18.986;2024-03-02T07:24:07;99211.75;;;17.53;53.83
41246;BME280;53880;47.526;18.986;2024-03-02T07:26:28;99213.59;;;17.53;53.56
41246;BME280;53880;47.526;18.986;2024-03-02T07:28:49;99217.91;;;17.54;53.73
41246;BME280;53880;47.526;18.986;2024-03-02T07:31:05;99215.41;;;17.52;53.79
41246;BME280;53880;47.526;18.986;2024-03-02T07:33:23;99218.06;;;17.52;53.59
41246;BME280;53880;47.526;18.986;2024-03-02T07:35:43;99216.25;;;17.53;53.77
41246;BME280;53880;47.526;18.986;2024-03-02T07:38:00;99216.25;;;17.53;53.56
41246;BME280;53880;47.526;18.986;2024-03-02T07:40:16;99218.91;;;17.53;53.81
41246;BME280;53880;47.526;18.986;2024-03-02T07:42:36;99217.22;;;17.52;53.58
41246;BME280;53880;47.526;18.986;2024-03-02T07:44:57;99223.41;;;17.52;53.57
41246;BME280;53880;47.526;18.986;2024-03-02T07:47:17;99224.38;;;17.51;53.57
41246;BME280;53880;47.526;18.986;2024-03-02T07:49:34;99227.03;;;17.51;53.56
41246;BME280;53880;47.526;18.986;2024-03-02T07:51:52;99225.22;;;17.52;53.75
41246;BME280;53880;47.526;18.986;2024-03-02T07:54:08;99228.91;;;17.51;53.76
41246;BME280;53880;47.526;18.986;2024-03-02T07:56:28;99233.38;;;17.50;53.53
41246;BME280;53880;47.526;18.986;2024-03-02T07:58:51;99231.56;;;17.51;53.85
41246;BME280;53880;47.526;18.986;2024-03-02T08:01:08;99239.56;;;17.51;53.58
41246;BME280;53880;47.526;18.986;2024-03-02T08:03:26;99239.56;;;17.51;53.56
41246;BME280;53880;47.526;18.986;2024-03-02T08:05:42;99239.56;;;17.51;53.74
41246;BME280;53880;47.526;18.986;2024-03-02T08:08:02;99238.72;;;17.50;53.60
41246;BME280;53880;47.526;18.986;2024-03-02T08:10:20;99231.66;;;17.49;53.75
41246;BME280;53880;47.526;18.986;2024-03-02T08:12:37;99234.31;;;17.49;53.75
41246;BME280;53880;47.526;18.986;2024-03-02T08:14:57;99246.78;;;17.49;53.75
41246;BME280;53880;47.526;18.986;2024-03-02T08:17:17;99239.81;;;17.48;53.79
41246;BME280;53880;47.526;18.986;2024-03-02T08:19:32;99238.97;;;17.47;53.66
41246;BME280;53880;47.526;18.986;2024-03-02T08:21:52;99235.47;;;17.47;53.71
41246;BME280;53880;47.526;18.986;2024-03-02T08:24:12;99234.50;;;17.48;53.82
41246;BME280;53880;47.526;18.986;2024-03-02T08:26:27;99238.00;;;17.48;53.58
41246;BME280;53880;47.526;18.986;2024-03-02T08:28:46;99239.81;;;17.48;53.76
41246;BME280;53880;47.526;18.986;2024-03-02T08:31:06;99237.31;;;17.46;53.64
41246;BME280;53880;47.526;18.986;2024-03-02T08:33:22;99238.31;;;17.45;53.61
41246;BME280;53880;47.526;18.986;2024-03-02T08:35:42;99241.81;;;17.46;53.83
41246;BME280;53880;47.526;18.986;2024-03-02T08:38:02;99238.13;;;17.47;53.76
41246;BME280;53880;47.526;18.986;2024-03-02T08:40:17;99229.47;;;17.45;53.80
41246;BME280;53880;47.526;18.986;2024-03-02T08:42:32;99238.31;;;17.45;53.58
41246;BME280;53880;47.526;18.986;2024-03-02T08:44:50;99239.31;;;17.44;53.67
41246;BME280;53880;47.526;18.986;2024-03-02T08:47:07;99240.28;;;17.43;53.79
41246;BME280;53880;47.526;18.986;2024-03-02T08:49:23;99240.13;;;17.45;53.63
41246;BME280;53880;47.526;18.986;2024-03-02T08:51:40;99241.44;;;17.41;53.66
41246;BME280;53880;47.526;18.986;2024-03-02T08:53:58;99238.47;;;17.44;53.72
41246;BME280;53880;47.526;18.986;2024-03-02T08:56:14;99241.97;;;17.44;53.62
41246;BME280;53880;47.526;18.986;2024-03-02T08:58:33;99231.31;;;17.44;53.74
41246;BME280;53880;47.526;18.986;2024-03-02T09:00:50;99241.97;;;17.44;53.71
41246;BME280;53880;47.526;18.986;2024-03-02T09:03:06;99240.97;;;17.45;53.70
41246;BME280;53880;47.526;18.986;2024-03-02T09:05:26;99241.97;;;17.44;53.49
41246;BME280;53880;47.526;18.986;2024-03-02T09:07:44;99239.31;;;17.44;53.72
41246;BME280;53880;47.526;18.986;2024-03-02T09:10:01;99245.44;;;17.45;53.63
41246;BME280;53880;47.526;18.986;2024-03-02T09:12:21;99241.13;;;17.44;53.74
41246;BME280;53880;47.526;18.986;2024-03-02T09:14:41;99248.09;;;17.45;53.64
41246;BME280;53880;47.526;18.986;2024-03-02T09:16:58;99246.28;;;17.45;53.68
41246;BME280;53880;47.526;18.986;2024-03-02T09:19:16;99248.28;;;17.43;53.56
41246;BME280;53880;47.526;18.986;2024-03-02T09:21:36;99243.94;;;17.42;53.55
41246;BME280;53880;47.526;18.986;2024-03-02T09:23:53;99250.09;;;17.43;53.53
41246;BME280;53880;47.526;18.986;2024-03-02T09:26:11;99250.09;;;17.43;53.72
41246;BME280;53880;47.526;18.986;2024-03-02T09:28:28;99245.63;;;17.43;53.74
41246;BME280;53880;47.526;18.986;2024-03-02T09:30:46;99250.09;;;17.43;53.50
41246;BME280;53880;47.526;18.986;2024-03-02T09:33:04;99248.28;;;17.43;53.47
41246;BME280;53880;47.526;18.986;2024-03-02T09:35:19;99244.78;;;17.43;53.57
41246;BME280;53880;47.526;18.986;2024-03-02T09:37:36;99248.44;;;17.42;53.82
41246;BME280;53880;47.526;18.986;2024-03-02T09:39:54;99245.78;;;17.42;53.57
41246;BME280;53880;47.526;18.986;2024-03-02T09:42:09;99251.25;;;17.40;53.82
41246;BME280;53880;47.526;18.986;2024-03-02T09:44:27;99252.25;;;17.39;53.60
41246;BME280;53880;47.526;18.986;2024-03-02T09:46:42;99253.91;;;17.40;53.59
41246;BME280;53880;47.526;18.986;2024-03-02T09:49:04;99248.56;;;17.40;53.78
41246;BME280;53880;47.526;18.986;2024-03-02T09:51:23;99243.25;;;17.40;53.57
41246;BME280;53880;47.526;18.986;2024-03-02T09:53:43;99245.91;;;17.40;53.74
41246;BME280;53880;47.526;18.986;2024-03-02T09:55:59;99245.09;;;17.40;53.65
41246;BME280;53880;47.526;18.986;2024-03-02T09:58:17;99247.75;;;17.40;53.75
41246;BME280;53880;47.526;18.986;2024-03-02T10:00:34;99244.25;;;17.39;53.81
41246;BME280;53880;47.526;18.986;2024-03-02T10:02:53;99245.25;;;17.38;53.60
41246;BME280;53880;47.526;18.986;2024-03-02T10:05:13;99242.56;;;17.38;53.53
41246;BME280;53880;47.526;18.986;2024-03-02T10:07:40;99251.56;;;17.37;53.77
41246;BME280;53880;47.526;18.986;2024-03-02T10:09:58;99248.91;;;17.37;53.78
41246;BME280;53880;47.526;18.986;2024-03-02T10:12:28;99238.25;;;17.37;53.60
41246;BME280;53880;47.526;18.986;2024-03-02T10:14:48;99245.41;;;17.37;53.72
41246;BME280;53880;47.526;18.986;2024-03-02T10:17:12;99240.91;;;17.37;53.73
41246;BME280;53880;47.526;18.986;2024-03-02T10:19:33;99243.59;;;17.37;53.59
41246;BME280;53880;47.526;18.986;2024-03-02T10:21:53;99238.25;;;17.37;53.52
41246;BME280;53880;47.526;18.986;2024-03-02T10:24:12;99237.59;;;17.35;53.70
41246;BME280;53880;47.526;18.986;2024-03-02T10:26:30;99245.41;;;17.37;53.47
41246;BME280;53880;47.526;18.986;2024-03-02T10:28:50;99241.09;;;17.36;53.50
41246;BME280;53880;47.526;18.986;2024-03-02T10:31:14;99241.91;;;17.36;53.55
41246;BME280;53880;47.526;18.986;2024-03-02T10:33:31;99244.56;;;17.36;53.54
41246;BME280;53880;47.526;18.986;2024-03-02T10:35:50;99244.56;;;17.36;53.75
41246;BME280;53880;47.526;18.986;2024-03-02T10:38:11;99238.56;;;17.34;53.63
41246;BME280;53880;47.526;18.986;2024-03-02T10:40:32;99241.38;;;17.33;53.75
41246;BME280;53880;47.526;18.986;2024-03-02T10:42:50;99240.75;;;17.39;53.51
41246;BME280;53880;47.526;18.986;2024-03-02T10:45:16;99240.78;;;17.47;53.43
41246;BME280;53880;47.526;18.986;2024-03-02T10:47:33;99236.72;;;17.52;53.46
41246;BME280;53880;47.526;18.986;2024-03-02T10:49:59;99237.22;;;17.56;53.38
41246;BME280;53880;47.526;18.986;2024-03-02T10:52:18;99240.25;;;17.61;53.23
41246;BME280;53880;47.526;18.986;2024-03-02T10:54:40;99239.63;;;17.67;53.10
41246;BME280;53880;47.526;18.986;2024-03-02T10:56:59;99241.50;;;17.75;53.25
41246;BME280;53880;47.526;18.986;2024-03-02T11:01:45;99234.59;;;17.90;53.12
41246;BME280;53880;47.526;18.986;2024-03-02T11:04:13;99234.59;;;17.98;53.06
41246;BME280;53880;47.526;18.986;2024-03-02T11:06:30;99230.63;;;18.02;52.94
41246;BME280;53880;47.526;18.986;2024-03-02T11:08:54;99231.97;;;18.06;52.66
41246;BME280;53880;47.526;18.986;2024-03-02T11:11:22;99228.81;;;18.10;52.83
41246;BME280;53880;47.526;18.986;2024-03-02T11:13:51;99228.34;;;18.15;52.56
41246;BME280;53880;47.526;18.986;2024-03-02T11:18:45;99221.00;;;18.17;52.75
41246;BME280;53880;47.526;18.986;2024-03-02T11:21:06;99222.66;;;18.18;52.70
41246;BME280;53880;47.526;18.986;2024-03-02T11:23:34;99216.34;;;18.19;52.92
41246;BME280;53880;47.526;18.986;2024-03-02T11:25:49;99215.38;;;18.20;52.74
41246;BME280;53880;47.526;18.986;2024-03-02T11:28:06;99216.19;;;18.20;52.78
41246;BME280;53880;47.526;18.986;2024-03-02T11:33:07;99215.00;;;18.23;53.03
41246;BME280;53880;47.526;18.986;2024-03-02T11:35:27;99209.69;;;18.23;53.01
41246;BME280;53880;47.526;18.986;2024-03-02T11:37:48;99211.38;;;18.24;52.91
41246;BME280;53880;47.526;18.986;2024-03-02T11:40:04;99207.88;;;18.23;52.76
41246;BME280;53880;47.526;18.986;2024-03-02T11:42:23;99213.19;;;18.23;52.77
41246;BME280;53880;47.526;18.986;2024-03-02T11:44:47;99212.34;;;18.23;53.03
41246;BME280;53880;47.526;18.986;2024-03-02T11:47:07;99205.19;;;18.23;52.97
41246;BME280;53880;47.526;18.986;2024-03-02T11:49:42;99206.19;;;18.22;52.98
41246;BME280;53880;47.526;18.986;2024-03-02T11:52:01;99206.19;;;18.22;52.82
41246;BME280;53880;47.526;18.986;2024-03-02T11:54:21;99209.84;;;18.21;53.01
41246;BME280;53880;47.526;18.986;2024-03-02T11:56:36;99208.03;;;18.22;52.80
41246;BME280;53880;47.526;18.986;2024-03-02T11:58:57;99203.50;;;18.22;52.84
41246;BME280;53880;47.526;18.986;2024-03-02T12:01:19;99209.84;;;18.21;53.00
41246;BME280;53880;47.526;18.986;2024-03-02T12:03:37;99205.38;;;18.22;52.97
41246;BME280;53880;47.526;18.986;2024-03-02T12:05:54;99207.19;;;18.21;52.86
41246;BME280;53880;47.526;18.986;2024-03-02T12:08:14;99206.34;;;18.21;53.02
41246;BME280;53880;47.526;18.986;2024-03-02T12:10:35;99210.69;;;18.22;53.00
41246;BME280;53880;47.526;18.986;2024-03-02T12:12:58;99208.03;;;18.22;53.07
41246;BME280;53880;47.526;18.986;2024-03-02T12:15:14;99205.50;;;18.20;52.91
41246;BME280;53880;47.526;18.986;2024-03-02T12:17:29;99197.50;;;18.20;53.01